sensor_id;sensor_type;location;lat;lon;timestamp;P1;durP1;ratioP1;P2;durP2;ratioP2
52734;SDS011;38631;47.572;10.704;2022-12-20T00:00:46;14.07;;;9.85;;
52734;SDS011;38631;47.572;10.704;2022-12-20T00:03:12;13.88;;;9.98;;
52734;SDS011;38631;47.572;10.704;2022-12-20T00:05:38;14.98;;;10.15;;
52734;SDS011;38631;47.572;10.704;2022-12-20T00:08:04;17.25;;;10.85;;
52734;SDS011;38631;47.572;10.704;2022-12-20T00:10:30;15.50;;;10.40;;
52734;SDS011;38631;47.572;10.704;2022-12-20T00:12:55;16.60;;;10.20;;
52734;SDS011;38631;47.572;10.704;2022-12-20T00:15:20;14.38;;;10.00;;
52734;SDS011;38631;47.572;10.704;2022-12-20T00:17:46;18.92;;;11.57;;
52734;SDS011;38631;47.572;10.704;2022-12-20T00:20:11;16.05;;;10.45;;
52734;SDS011;38631;47.572;10.704;2022-12-20T00:22:37;15.85;;;10.52;;
52734;SDS011;38631;47.572;10.704;2022-12-20T00:25:02;13.70;;;8.93;;
52734;SDS011;38631;47.572;10.704;2022-12-20T00:27:28;15.15;;;9.73;;
52734;SDS011;38631;47.572;10.704;2022-12-20T00:29:54;11.82;;;8.65;;
52734;SDS011;38631;47.572;10.704;2022-12-20T00:32:19;10.38;;;7.85;;
52734;SDS011;38631;47.572;10.704;2022-12-20T00:34:44;11.98;;;7.88;;
52734;SDS011;38631;47.572;10.704;2022-12-20T00:37:10;10.60;;;7.63;;
52734;SDS011;38631;47.572;10.704;2022-12-20T00:39:35;10.55;;;7.70;;
52734;SDS011;38631;47.572;10.704;2022-12-20T00:42:00;12.68;;;8.07;;
52734;SDS011;38631;47.572;10.704;2022-12-20T00:44:26;9.52;;;6.40;;
52734;SDS011;38631;47.572;10.704;2022-12-20T00:46:52;9.38;;;6.30;;
52734;SDS011;38631;47.572;10.704;2022-12-20T00:49:17;10.10;;;6.20;;
52734;SDS011;38631;47.572;10.704;2022-12-20T00:51:43;8.82;;;6.25;;
52734;SDS011;38631;47.572;10.704;2022-12-20T00:54:08;6.82;;;4.65;;
52734;SDS011;38631;47.572;10.704;2022-12-20T00:56:34;7.25;;;4.80;;
52734;SDS011;38631;47.572;10.704;2022-12-20T00:58:59;6.57;;;4.78;;
52734;SDS011;38631;47.572;10.704;2022-12-20T01:01:25;7.75;;;4.97;;
52734;SDS011;38631;47.572;10.704;2022-12-20T01:03:53;8.88;;;6.25;;
52734;SDS011;38631;47.572;10.704;2022-12-20T01:06:18;9.82;;;6.70;;
52734;SDS011;38631;47.572;10.704;2022-12-20T01:08:45;10.35;;;6.15;;
52734;SDS011;38631;47.572;10.704;2022-12-20T01:11:15;9.35;;;5.28;;
52734;SDS011;38631;47.572;10.704;2022-12-20T01:13:43;8.40;;;5.75;;
52734;SDS011;38631;47.572;10.704;2022-12-20T01:18:37;8.27;;;4.65;;
52734;SDS011;38631;47.572;10.704;2022-12-20T01:21:04;6.88;;;4.18;;
52734;SDS011;38631;47.572;10.704;2022-12-20T01:23:30;6.18;;;4.13;;
52734;SDS011;38631;47.572;10.704;2022-12-20T01:25:57;5.07;;;3.80;;
52734;SDS011;38631;47.572;10.704;2022-12-20T01:28:23;6.15;;;3.33;;
52734;SDS011;38631;47.572;10.704;2022-12-20T01:30:49;6.43;;;3.72;;
52734;SDS011;38631;47.572;10.704;2022-12-20T01:33:14;5.05;;;3.20;;
52734;SDS011;38631;47.572;10.704;2022-12-20T01:35:39;4.18;;;2.80;;
52734;SDS011;38631;47.572;10.704;2022-12-20T01:38:05;4.55;;;2.78;;
52734;SDS011;38631;47.572;10.704;2022-12-20T01:40:30;5.40;;;3.17;;
52734;SDS011;38631;47.572;10.704;2022-12-20T01:42:55;4.57;;;2.50;;
52734;SDS011;38631;47.572;10.704;2022-12-20T01:45:28;4.18;;;2.20;;
52734;SDS011;38631;47.572;10.704;2022-12-20T01:47:55;3.42;;;2.25;;
52734;SDS011;38631;47.572;10.704;2022-12-20T01:50:23;4.18;;;1.92;;
52734;SDS011;38631;47.572;10.704;2022-12-20T01:52:49;4.68;;;2.53;;
52734;SDS011;38631;47.572;10.704;2022-12-20T01:55:17;5.32;;;2.50;;
52734;SDS011;38631;47.572;10.704;2022-12-20T01:57:56;3.55;;;2.20;;
52734;SDS011;38631;47.572;10.704;2022-12-20T02:00:22;4.65;;;2.28;;
52734;SDS011;38631;47.572;10.704;2022-12-20T02:02:48;4.10;;;3.00;;
52734;SDS011;38631;47.572;10.704;2022-12-20T02:05:15;6.15;;;3.28;;
52734;SDS011;38631;47.572;10.704;2022-12-20T02:07:43;4.57;;;2.83;;
52734;SDS011;38631;47.572;10.704;2022-12-20T02:10:12;5.78;;;2.25;;
52734;SDS011;38631;47.572;10.704;2022-12-20T02:12:39;3.25;;;2.33;;
52734;SDS011;38631;47.572;10.704;2022-12-20T02:24:02;4.35;;;2.42;;
52734;SDS011;38631;47.572;10.704;2022-12-20T02:30:18;6.35;;;2.95;;
52734;SDS011;38631;47.572;10.704;2022-12-20T02:35:22;5.72;;;3.25;;
52734;SDS011;38631;47.572;10.704;2022-12-20T02:37:53;3.67;;;2.60;;
52734;SDS011;38631;47.572;10.704;2022-12-20T02:40:23;4.57;;;2.90;;
52734;SDS011;38631;47.572;10.704;2022-12-20T02:42:52;5.22;;;2.97;;
52734;SDS011;38631;47.572;10.704;2022-12-20T02:45:24;4.78;;;2.67;;
52734;SDS011;38631;47.572;10.704;2022-12-20T02:47:58;4.32;;;2.58;;
52734;SDS011;38631;47.572;10.704;2022-12-20T02:50:27;3.28;;;2.17;;
52734;SDS011;38631;47.572;10.704;2022-12-20T02:52:59;4.53;;;2.20;;
52734;SDS011;38631;47.572;10.704;2022-12-20T02:55:30;5.75;;;2.92;;
52734;SDS011;38631;47.572;10.704;2022-12-20T02:58:05;2.58;;;2.00;;
52734;SDS011;38631;47.572;10.704;2022-12-20T03:00:37;4.28;;;2.90;;
52734;SDS011;38631;47.572;10.704;2022-12-20T03:03:06;4.57;;;2.38;;
52734;SDS011;38631;47.572;10.704;2022-12-20T03:05:49;4.13;;;2.58;;
52734;SDS011;38631;47.572;10.704;2022-12-20T03:08:17;4.18;;;2.20;;
52734;SDS011;38631;47.572;10.704;2022-12-20T03:10:43;4.32;;;2.85;;
52734;SDS011;38631;47.572;10.704;2022-12-20T03:13:08;5.28;;;2.83;;
52734;SDS011;38631;47.572;10.704;2022-12-20T03:15:34;4.18;;;2.85;;
52734;SDS011;38631;47.572;10.704;2022-12-20T03:18:00;4.10;;;2.70;;
52734;SDS011;38631;47.572;10.704;2022-12-20T03:20:25;5.25;;;2.80;;
52734;SDS011;38631;47.572;10.704;2022-12-20T03:22:50;3.75;;;2.88;;
52734;SDS011;38631;47.572;10.704;2022-12-20T03:25:16;5.78;;;2.72;;
52734;SDS011;38631;47.572;10.704;2022-12-20T03:27:41;3.70;;;2.40;;
52734;SDS011;38631;47.572;10.704;2022-12-20T03:30:07;3.97;;;2.42;;
52734;SDS011;38631;47.572;10.704;2022-12-20T03:32:32;4.22;;;2.67;;
52734;SDS011;38631;47.572;10.704;2022-12-20T03:34:58;5.30;;;3.08;;
52734;SDS011;38631;47.572;10.704;2022-12-20T03:37:23;3.28;;;2.30;;
52734;SDS011;38631;47.572;10.704;2022-12-20T03:39:49;3.55;;;2.70;;
52734;SDS011;38631;47.572;10.704;2022-12-20T03:42:14;13.65;;;9.30;;
52734;SDS011;38631;47.572;10.704;2022-12-20T03:44:39;8.05;;;5.20;;
52734;SDS011;38631;47.572;10.704;2022-12-20T03:47:05;7.05;;;4.88;;
52734;SDS011;38631;47.572;10.704;2022-12-20T03:49:30;6.50;;;4.47;;
52734;SDS011;38631;47.572;10.704;2022-12-20T03:51:55;7.97;;;4.00;;
52734;SDS011;38631;47.572;10.704;2022-12-20T03:54:21;5.10;;;3.30;;
52734;SDS011;38631;47.572;10.704;2022-12-20T03:56:46;4.65;;;3.20;;
52734;SDS011;38631;47.572;10.704;2022-12-20T03:59:12;5.80;;;3.40;;
52734;SDS011;38631;47.572;10.704;2022-12-20T04:01:37;4.82;;;3.60;;
52734;SDS011;38631;47.572;10.704;2022-12-20T04:04:02;4.63;;;3.30;;
52734;SDS011;38631;47.572;10.704;2022-12-20T04:06:29;5.82;;;3.45;;
52734;SDS011;38631;47.572;10.704;2022-12-20T04:08:54;4.68;;;3.33;;
52734;SDS011;38631;47.572;10.704;2022-12-20T04:11:20;5.60;;;3.42;;
52734;SDS011;38631;47.572;10.704;2022-12-20T04:13:46;5.07;;;2.55;;
52734;SDS011;38631;47.572;10.704;2022-12-20T04:16:17;3.53;;;2.47;;
52734;SDS011;38631;47.572;10.704;2022-12-20T04:18:44;3.90;;;2.83;;
52734;SDS011;38631;47.572;10.704;2022-12-20T04:21:10;4.20;;;2.33;;
52734;SDS011;38631;47.572;10.704;2022-12-20T04:23:36;4.65;;;2.75;;
52734;SDS011;38631;47.572;10.704;2022-12-20T04:26:03;3.90;;;3.00;;
52734;SDS011;38631;47.572;10.704;2022-12-20T04:28:31;6.47;;;3.92;;
52734;SDS011;38631;47.572;10.704;2022-12-20T04:30:57;5.78;;;4.32;;
52734;SDS011;38631;47.572;10.704;2022-12-20T04:33:23;6.20;;;3.90;;
52734;SDS011;38631;47.572;10.704;2022-12-20T04:35:51;5.07;;;3.53;;
52734;SDS011;38631;47.572;10.704;2022-12-20T04:38:18;6.22;;;3.20;;
52734;SDS011;38631;47.572;10.704;2022-12-20T04:40:44;4.53;;;3.33;;
52734;SDS011;38631;47.572;10.704;2022-12-20T04:43:12;5.18;;;3.35;;
52734;SDS011;38631;47.572;10.704;2022-12-20T04:45:38;5.43;;;3.60;;
52734;SDS011;38631;47.572;10.704;2022-12-20T04:48:03;5.28;;;3.00;;
52734;SDS011;38631;47.572;10.704;2022-12-20T04:50:29;6.38;;;3.50;;
52734;SDS011;38631;47.572;10.704;2022-12-20T04:52:54;4.75;;;3.30;;
52734;SDS011;38631;47.572;10.704;2022-12-20T04:55:38;4.80;;;3.25;;
52734;SDS011;38631;47.572;10.704;2022-12-20T04:58:05;4.15;;;3.20;;
52734;SDS011;38631;47.572;10.704;2022-12-20T05:00:31;4.43;;;3.42;;
52734;SDS011;38631;47.572;10.704;2022-12-20T05:02:57;4.13;;;2.95;;
52734;SDS011;38631;47.572;10.704;2022-12-20T05:05:23;4.13;;;3.20;;
52734;SDS011;38631;47.572;10.704;2022-12-20T05:07:49;4.63;;;3.20;;
52734;SDS011;38631;47.572;10.704;2022-12-20T05:10:15;5.40;;;3.38;;
52734;SDS011;38631;47.572;10.704;2022-12-20T05:12:40;4.72;;;3.40;;
52734;SDS011;38631;47.572;10.704;2022-12-20T05:15:05;8.10;;;5.53;;
52734;SDS011;38631;47.572;10.704;2022-12-20T05:17:32;7.30;;;5.13;;
52734;SDS011;38631;47.572;10.704;2022-12-20T05:19:58;12.60;;;7.57;;
52734;SDS011;38631;47.572;10.704;2022-12-20T05:22:23;10.98;;;8.18;;
52734;SDS011;38631;47.572;10.704;2022-12-20T05:25:08;12.15;;;9.13;;
52734;SDS011;38631;47.572;10.704;2022-12-20T05:27:53;12.38;;;8.73;;
52734;SDS011;38631;47.572;10.704;2022-12-20T05:30:19;10.30;;;7.80;;
52734;SDS011;38631;47.572;10.704;2022-12-20T05:32:44;9.02;;;6.50;;
52734;SDS011;38631;47.572;10.704;2022-12-20T05:35:09;6.82;;;4.72;;
52734;SDS011;38631;47.572;10.704;2022-12-20T05:37:35;10.32;;;5.53;;
52734;SDS011;38631;47.572;10.704;2022-12-20T05:40:00;7.85;;;5.10;;
52734;SDS011;38631;47.572;10.704;2022-12-20T05:42:25;7.55;;;4.75;;
52734;SDS011;38631;47.572;10.704;2022-12-20T05:44:51;15.45;;;9.80;;
52734;SDS011;38631;47.572;10.704;2022-12-20T05:47:16;14.57;;;9.48;;
52734;SDS011;38631;47.572;10.704;2022-12-20T05:49:41;13.55;;;8.85;;
52734;SDS011;38631;47.572;10.704;2022-12-20T05:52:07;12.45;;;8.60;;
52734;SDS011;38631;47.572;10.704;2022-12-20T05:54:32;11.98;;;8.45;;
52734;SDS011;38631;47.572;10.704;2022-12-20T05:56:58;13.38;;;8.80;;
52734;SDS011;38631;47.572;10.704;2022-12-20T05:59:23;11.45;;;8.15;;
52734;SDS011;38631;47.572;10.704;2022-12-20T06:01:48;12.93;;;7.38;;
52734;SDS011;38631;47.572;10.704;2022-12-20T06:04:14;9.43;;;6.47;;
52734;SDS011;38631;47.572;10.704;2022-12-20T06:06:39;10.82;;;7.15;;
52734;SDS011;38631;47.572;10.704;2022-12-20T06:09:05;9.13;;;6.32;;
52734;SDS011;38631;47.572;10.704;2022-12-20T06:11:30;9.73;;;6.07;;
52734;SDS011;38631;47.572;10.704;2022-12-20T06:13:55;8.85;;;6.43;;
52734;SDS011;38631;47.572;10.704;2022-12-20T06:16:21;9.10;;;6.35;;
52734;SDS011;38631;47.572;10.704;2022-12-20T06:18:47;8.80;;;6.00;;
52734;SDS011;38631;47.572;10.704;2022-12-20T06:21:12;9.07;;;6.05;;
52734;SDS011;38631;47.572;10.704;2022-12-20T06:23:38;7.70;;;5.65;;
52734;SDS011;38631;47.572;10.704;2022-12-20T06:26:03;8.65;;;4.90;;
52734;SDS011;38631;47.572;10.704;2022-12-20T06:28:33;9.60;;;4.70;;
52734;SDS011;38631;47.572;10.704;2022-12-20T06:30:58;8.02;;;5.30;;
52734;SDS011;38631;47.572;10.704;2022-12-20T06:33:24;7.75;;;5.45;;
52734;SDS011;38631;47.572;10.704;2022-12-20T06:35:49;6.93;;;4.97;;
52734;SDS011;38631;47.572;10.704;2022-12-20T06:38:15;9.52;;;6.53;;
52734;SDS011;38631;47.572;10.704;2022-12-20T06:40:41;11.25;;;7.25;;
52734;SDS011;38631;47.572;10.704;2022-12-20T06:43:06;9.20;;;7.15;;
52734;SDS011;38631;47.572;10.704;2022-12-20T06:45:32;8.23;;;6.38;;
52734;SDS011;38631;47.572;10.704;2022-12-20T06:47:57;11.15;;;7.65;;
52734;SDS011;38631;47.572;10.704;2022-12-20T06:50:23;11.18;;;8.38;;
52734;SDS011;38631;47.572;10.704;2022-12-20T06:52:49;12.27;;;8.63;;
52734;SDS011;38631;47.572;10.704;2022-12-20T06:55:14;10.60;;;8.10;;
52734;SDS011;38631;47.572;10.704;2022-12-20T06:57:40;9.82;;;7.30;;
52734;SDS011;38631;47.572;10.704;2022-12-20T07:00:05;12.02;;;7.97;;
52734;SDS011;38631;47.572;10.704;2022-12-20T07:02:32;10.48;;;7.45;;
52734;SDS011;38631;47.572;10.704;2022-12-20T07:04:57;11.77;;;7.57;;
52734;SDS011;38631;47.572;10.704;2022-12-20T07:07:23;9.77;;;7.75;;
52734;SDS011;38631;47.572;10.704;2022-12-20T07:09:48;12.13;;;8.40;;
52734;SDS011;38631;47.572;10.704;2022-12-20T07:12:13;12.20;;;8.20;;
52734;SDS011;38631;47.572;10.704;2022-12-20T07:14:39;12.40;;;8.95;;
52734;SDS011;38631;47.572;10.704;2022-12-20T07:17:04;11.00;;;7.53;;
52734;SDS011;38631;47.572;10.704;2022-12-20T07:19:30;14.00;;;9.27;;
52734;SDS011;38631;47.572;10.704;2022-12-20T07:21:55;12.80;;;8.90;;
52734;SDS011;38631;47.572;10.704;2022-12-20T07:24:20;14.93;;;9.00;;
52734;SDS011;38631;47.572;10.704;2022-12-20T07:26:46;13.70;;;8.02;;
52734;SDS011;38631;47.572;10.704;2022-12-20T07:29:12;13.20;;;9.05;;
52734;SDS011;38631;47.572;10.704;2022-12-20T07:31:38;12.95;;;8.55;;
52734;SDS011;38631;47.572;10.704;2022-12-20T07:34:03;14.93;;;9.07;;
52734;SDS011;38631;47.572;10.704;2022-12-20T07:36:29;11.27;;;7.78;;
52734;SDS011;38631;47.572;10.704;2022-12-20T07:38:54;11.18;;;7.93;;
52734;SDS011;38631;47.572;10.704;2022-12-20T07:41:19;14.88;;;8.98;;
52734;SDS011;38631;47.572;10.704;2022-12-20T07:43:45;13.23;;;8.32;;
52734;SDS011;38631;47.572;10.704;2022-12-20T07:46:11;10.90;;;8.07;;
52734;SDS011;38631;47.572;10.704;2022-12-20T07:48:38;13.40;;;9.13;;
52734;SDS011;38631;47.572;10.704;2022-12-20T07:51:08;17.98;;;12.30;;
52734;SDS011;38631;47.572;10.704;2022-12-20T07:53:44;24.15;;;16.27;;
52734;SDS011;38631;47.572;10.704;2022-12-20T07:56:16;26.98;;;19.02;;
52734;SDS011;38631;47.572;10.704;2022-12-20T07:58:44;29.85;;;19.73;;
52734;SDS011;38631;47.572;10.704;2022-12-20T08:01:10;27.35;;;19.48;;
52734;SDS011;38631;47.572;10.704;2022-12-20T08:03:39;28.38;;;20.13;;
52734;SDS011;38631;47.572;10.704;2022-12-20T08:06:11;28.40;;;18.30;;
52734;SDS011;38631;47.572;10.704;2022-12-20T08:08:39;30.88;;;18.00;;
52734;SDS011;38631;47.572;10.704;2022-12-20T08:11:10;26.30;;;17.42;;
52734;SDS011;38631;47.572;10.704;2022-12-20T08:13:36;28.05;;;18.00;;
52734;SDS011;38631;47.572;10.704;2022-12-20T08:16:02;29.55;;;17.45;;
52734;SDS011;38631;47.572;10.704;2022-12-20T08:18:27;22.98;;;15.20;;
52734;SDS011;38631;47.572;10.704;2022-12-20T08:20:53;26.42;;;16.65;;
52734;SDS011;38631;47.572;10.704;2022-12-20T08:23:18;21.13;;;14.25;;
52734;SDS011;38631;47.572;10.704;2022-12-20T08:25:43;18.65;;;12.95;;
52734;SDS011;38631;47.572;10.704;2022-12-20T08:28:09;15.68;;;11.23;;
52734;SDS011;38631;47.572;10.704;2022-12-20T08:30:35;13.00;;;9.23;;
52734;SDS011;38631;47.572;10.704;2022-12-20T08:33:00;12.00;;;8.02;;
52734;SDS011;38631;47.572;10.704;2022-12-20T08:35:26;9.38;;;7.32;;
52734;SDS011;38631;47.572;10.704;2022-12-20T08:37:51;13.05;;;6.82;;
52734;SDS011;38631;47.572;10.704;2022-12-20T08:40:17;11.32;;;6.97;;
52734;SDS011;38631;47.572;10.704;2022-12-20T08:42:43;13.05;;;7.47;;
52734;SDS011;38631;47.572;10.704;2022-12-20T08:45:08;11.25;;;7.10;;
52734;SDS011;38631;47.572;10.704;2022-12-20T08:47:34;11.75;;;7.15;;
52734;SDS011;38631;47.572;10.704;2022-12-20T08:49:59;12.82;;;7.90;;
52734;SDS011;38631;47.572;10.704;2022-12-20T08:52:27;16.33;;;9.60;;
52734;SDS011;38631;47.572;10.704;2022-12-20T08:54:52;13.82;;;9.23;;
52734;SDS011;38631;47.572;10.704;2022-12-20T08:57:18;18.02;;;10.73;;
52734;SDS011;38631;47.572;10.704;2022-12-20T08:59:43;24.65;;;12.40;;
52734;SDS011;38631;47.572;10.704;2022-12-20T09:02:08;24.83;;;13.57;;
52734;SDS011;38631;47.572;10.704;2022-12-20T09:04:34;26.65;;;13.85;;
52734;SDS011;38631;47.572;10.704;2022-12-20T09:06:59;15.18;;;9.48;;
52734;SDS011;38631;47.572;10.704;2022-12-20T09:09:25;16.35;;;10.20;;
52734;SDS011;38631;47.572;10.704;2022-12-20T09:11:50;14.65;;;10.32;;
52734;SDS011;38631;47.572;10.704;2022-12-20T09:14:16;15.52;;;9.60;;
52734;SDS011;38631;47.572;10.704;2022-12-20T09:16:42;12.75;;;8.13;;
52734;SDS011;38631;47.572;10.704;2022-12-20T09:19:09;11.57;;;7.18;;
52734;SDS011;38631;47.572;10.704;2022-12-20T09:21:36;9.38;;;5.90;;
52734;SDS011;38631;47.572;10.704;2022-12-20T09:24:01;8.85;;;5.65;;
52734;SDS011;38631;47.572;10.704;2022-12-20T09:26:27;10.52;;;6.95;;
52734;SDS011;38631;47.572;10.704;2022-12-20T09:28:52;9.57;;;6.25;;
52734;SDS011;38631;47.572;10.704;2022-12-20T09:31:19;8.27;;;5.97;;
52734;SDS011;38631;47.572;10.704;2022-12-20T09:33:46;9.57;;;6.78;;
52734;SDS011;38631;47.572;10.704;2022-12-20T09:36:16;11.13;;;7.07;;
52734;SDS011;38631;47.572;10.704;2022-12-20T09:38:43;12.18;;;7.13;;
52734;SDS011;38631;47.572;10.704;2022-12-20T09:44:04;11.80;;;8.05;;
52734;SDS011;38631;47.572;10.704;2022-12-20T09:46:54;10.27;;;7.88;;
52734;SDS011;38631;47.572;10.704;2022-12-20T09:49:22;12.43;;;8.40;;
52734;SDS011;38631;47.572;10.704;2022-12-20T09:54:56;11.50;;;7.75;;
52734;SDS011;38631;47.572;10.704;2022-12-20T09:58:27;10.38;;;7.25;;
52734;SDS011;38631;47.572;10.704;2022-12-20T10:00:47;10.00;;;7.30;;
52734;SDS011;38631;47.572;10.704;2022-12-20T10:03:47;10.15;;;6.85;;
52734;SDS011;38631;47.572;10.704;2022-12-20T10:06:08;11.60;;;6.63;;
52734;SDS011;38631;47.572;10.704;2022-12-20T10:08:54;12.07;;;7.72;;
52734;SDS011;38631;47.572;10.704;2022-12-20T10:19:59;8.23;;;5.43;;
52734;SDS011;38631;47.572;10.704;2022-12-20T10:22:42;9.35;;;6.40;;
52734;SDS011;38631;47.572;10.704;2022-12-20T10:25:31;8.13;;;5.88;;
52734;SDS011;38631;47.572;10.704;2022-12-20T10:27:59;8.57;;;5.65;;
52734;SDS011;38631;47.572;10.704;2022-12-20T10:30:27;8.98;;;5.80;;
52734;SDS011;38631;47.572;10.704;2022-12-20T10:32:54;8.13;;;5.60;;
52734;SDS011;38631;47.572;10.704;2022-12-20T10:38:10;9.68;;;5.45;;
52734;SDS011;38631;47.572;10.704;2022-12-20T10:40:39;7.78;;;5.70;;
52734;SDS011;38631;47.572;10.704;2022-12-20T10:43:24;9.10;;;5.55;;
52734;SDS011;38631;47.572;10.704;2022-12-20T10:46:01;11.60;;;7.28;;
52734;SDS011;38631;47.572;10.704;2022-12-20T10:48:33;11.77;;;7.95;;
52734;SDS011;38631;47.572;10.704;2022-12-20T10:53:36;11.43;;;7.30;;
52734;SDS011;38631;47.572;10.704;2022-12-20T10:56:18;13.23;;;8.18;;
52734;SDS011;38631;47.572;10.704;2022-12-20T10:58:53;12.02;;;7.45;;
52734;SDS011;38631;47.572;10.704;2022-12-20T11:01:33;11.90;;;7.45;;
52734;SDS011;38631;47.572;10.704;2022-12-20T11:04:02;14.30;;;8.50;;
52734;SDS011;38631;47.572;10.704;2022-12-20T11:06:39;11.73;;;8.02;;
52734;SDS011;38631;47.572;10.704;2022-12-20T11:12:03;19.45;;;12.55;;
52734;SDS011;38631;47.572;10.704;2022-12-20T11:14:32;17.08;;;11.45;;
52734;SDS011;38631;47.572;10.704;2022-12-20T11:17:00;18.50;;;11.52;;
52734;SDS011;38631;47.572;10.704;2022-12-20T11:19:36;13.40;;;9.52;;
52734;SDS011;38631;47.572;10.704;2022-12-20T11:22:33;12.15;;;8.18;;
52734;SDS011;38631;47.572;10.704;2022-12-20T11:34:03;13.65;;;9.00;;
52734;SDS011;38631;47.572;10.704;2022-12-20T11:39:33;28.23;;;19.55;;
52734;SDS011;38631;47.572;10.704;2022-12-20T11:44:57;19.33;;;14.65;;
52734;SDS011;38631;47.572;10.704;2022-12-20T11:48:08;17.02;;;11.18;;
52734;SDS011;38631;47.572;10.704;2022-12-20T11:50:59;16.00;;;11.23;;
52734;SDS011;38631;47.572;10.704;2022-12-20T11:53:36;16.33;;;11.55;;
52734;SDS011;38631;47.572;10.704;2022-12-20T11:56:16;15.80;;;12.52;;
52734;SDS011;38631;47.572;10.704;2022-12-20T12:01:16;23.77;;;14.93;;
52734;SDS011;38631;47.572;10.704;2022-12-20T12:03:52;17.80;;;13.30;;
52734;SDS011;38631;47.572;10.704;2022-12-20T12:06:26;19.25;;;13.50;;
52734;SDS011;38631;47.572;10.704;2022-12-20T12:11:46;21.33;;;17.80;;
52734;SDS011;38631;47.572;10.704;2022-12-20T12:14:28;24.05;;;17.38;;
52734;SDS011;38631;47.572;10.704;2022-12-20T12:19:55;25.58;;;16.55;;
52734;SDS011;38631;47.572;10.704;2022-12-20T12:22:31;22.05;;;15.80;;
52734;SDS011;38631;47.572;10.704;2022-12-20T12:25:00;23.30;;;16.42;;
52734;SDS011;38631;47.572;10.704;2022-12-20T12:27:29;21.33;;;16.40;;
52734;SDS011;38631;47.572;10.704;2022-12-20T12:29:56;21.23;;;14.93;;
52734;SDS011;38631;47.572;10.704;2022-12-20T12:32:31;21.77;;;16.17;;
52734;SDS011;38631;47.572;10.704;2022-12-20T12:48:39;17.30;;;14.68;;
52734;SDS011;38631;47.572;10.704;2022-12-20T12:51:09;20.95;;;17.02;;
52734;SDS011;38631;47.572;10.704;2022-12-20T12:53:41;18.30;;;13.98;;
52734;SDS011;38631;47.572;10.704;2022-12-20T13:06:52;15.80;;;12.73;;
52734;SDS011;38631;47.572;10.704;2022-12-20T13:11:48;15.10;;;9.88;;
52734;SDS011;38631;47.572;10.704;2022-12-20T13:16:47;13.02;;;8.60;;
52734;SDS011;38631;47.572;10.704;2022-12-20T13:21:52;22.33;;;16.48;;
52734;SDS011;38631;47.572;10.704;2022-12-20T13:27:15;19.60;;;14.68;;
52734;SDS011;38631;47.572;10.704;2022-12-20T13:29:58;24.33;;;16.80;;
52734;SDS011;38631;47.572;10.704;2022-12-20T13:40:29;28.00;;;19.90;;
52734;SDS011;38631;47.572;10.704;2022-12-20T13:42:55;37.03;;;22.88;;
52734;SDS011;38631;47.572;10.704;2022-12-20T13:45:27;30.27;;;21.80;;
52734;SDS011;38631;47.572;10.704;2022-12-20T13:47:54;35.05;;;24.52;;
52734;SDS011;38631;47.572;10.704;2022-12-20T13:50:31;31.35;;;21.60;;
52734;SDS011;38631;47.572;10.704;2022-12-20T13:53:03;27.02;;;18.92;;
52734;SDS011;38631;47.572;10.704;2022-12-20T13:55:35;30.05;;;19.90;;
52734;SDS011;38631;47.572;10.704;2022-12-20T13:58:02;26.42;;;18.83;;
52734;SDS011;38631;47.572;10.704;2022-12-20T14:00:30;25.98;;;18.65;;
52734;SDS011;38631;47.572;10.704;2022-12-20T14:02:56;19.45;;;13.77;;
52734;SDS011;38631;47.572;10.704;2022-12-20T14:05:22;15.13;;;11.18;;
52734;SDS011;38631;47.572;10.704;2022-12-20T14:07:58;14.57;;;10.60;;
52734;SDS011;38631;47.572;10.704;2022-12-20T14:10:27;16.05;;;11.50;;
52734;SDS011;38631;47.572;10.704;2022-12-20T14:12:53;12.40;;;10.38;;
52734;SDS011;38631;47.572;10.704;2022-12-20T14:15:21;13.88;;;10.13;;
52734;SDS011;38631;47.572;10.704;2022-12-20T14:17:48;14.15;;;10.80;;
52734;SDS011;38631;47.572;10.704;2022-12-20T14:20:14;19.20;;;14.55;;
52734;SDS011;38631;47.572;10.704;2022-12-20T14:22:45;29.33;;;20.23;;
52734;SDS011;38631;47.572;10.704;2022-12-20T14:27:58;38.22;;;26.15;;
52734;SDS011;38631;47.572;10.704;2022-12-20T14:30:25;48.97;;;32.45;;
52734;SDS011;38631;47.572;10.704;2022-12-20T14:32:55;45.47;;;29.65;;
52734;SDS011;38631;47.572;10.704;2022-12-20T14:35:22;46.20;;;31.17;;
52734;SDS011;38631;47.572;10.704;2022-12-20T14:37:57;56.25;;;34.70;;
52734;SDS011;38631;47.572;10.704;2022-12-20T14:40:26;51.20;;;33.33;;
52734;SDS011;38631;47.572;10.704;2022-12-20T14:42:52;53.28;;;34.72;;
52734;SDS011;38631;47.572;10.704;2022-12-20T14:45:19;50.00;;;32.78;;
52734;SDS011;38631;47.572;10.704;2022-12-20T14:47:47;44.37;;;29.17;;
52734;SDS011;38631;47.572;10.704;2022-12-20T14:50:26;35.83;;;23.95;;
52734;SDS011;38631;47.572;10.704;2022-12-20T14:53:02;38.22;;;22.80;;
52734;SDS011;38631;47.572;10.704;2022-12-20T14:55:38;28.58;;;19.85;;
52734;SDS011;38631;47.572;10.704;2022-12-20T14:58:28;36.60;;;24.65;;
52734;SDS011;38631;47.572;10.704;2022-12-20T15:00:57;34.88;;;23.75;;
52734;SDS011;38631;47.572;10.704;2022-12-20T15:03:52;41.17;;;26.73;;
52734;SDS011;38631;47.572;10.704;2022-12-20T15:09:07;39.00;;;27.73;;
52734;SDS011;38631;47.572;10.704;2022-12-20T15:11:33;39.53;;;27.15;;
52734;SDS011;38631;47.572;10.704;2022-12-20T15:14:00;37.25;;;26.27;;
52734;SDS011;38631;47.572;10.704;2022-12-20T15:16:28;39.20;;;26.88;;
52734;SDS011;38631;47.572;10.704;2022-12-20T15:18:54;39.20;;;27.27;;
52734;SDS011;38631;47.572;10.704;2022-12-20T15:23:58;43.67;;;29.73;;
52734;SDS011;38631;47.572;10.704;2022-12-20T15:26:26;42.17;;;29.08;;
52734;SDS011;38631;47.572;10.704;2022-12-20T15:28:54;60.78;;;41.72;;
52734;SDS011;38631;47.572;10.704;2022-12-20T15:31:21;60.85;;;39.75;;
52734;SDS011;38631;47.572;10.704;2022-12-20T15:33:50;62.55;;;38.28;;
52734;SDS011;38631;47.572;10.704;2022-12-20T15:36:19;62.28;;;39.15;;
52734;SDS011;38631;47.572;10.704;2022-12-20T15:38:46;60.08;;;38.53;;
52734;SDS011;38631;47.572;10.704;2022-12-20T15:41:25;59.40;;;36.30;;
52734;SDS011;38631;47.572;10.704;2022-12-20T15:46:20;56.42;;;37.47;;
52734;SDS011;38631;47.572;10.704;2022-12-20T15:48:45;57.67;;;39.08;;
52734;SDS011;38631;47.572;10.704;2022-12-20T15:51:13;52.72;;;36.63;;
52734;SDS011;38631;47.572;10.704;2022-12-20T15:53:41;49.95;;;33.15;;
52734;SDS011;38631;47.572;10.704;2022-12-20T15:56:07;41.67;;;30.33;;
52734;SDS011;38631;47.572;10.704;2022-12-20T15:58:40;38.72;;;28.42;;
52734;SDS011;38631;47.572;10.704;2022-12-20T16:01:07;40.70;;;27.65;;
52734;SDS011;38631;47.572;10.704;2022-12-20T16:03:37;37.20;;;27.13;;
52734;SDS011;38631;47.572;10.704;2022-12-20T16:06:03;39.78;;;29.17;;
52734;SDS011;38631;47.572;10.704;2022-12-20T16:08:28;43.05;;;30.33;;
52734;SDS011;38631;47.572;10.704;2022-12-20T16:10:54;43.38;;;30.02;;
52734;SDS011;38631;47.572;10.704;2022-12-20T16:13:21;43.42;;;29.75;;
52734;SDS011;38631;47.572;10.704;2022-12-20T16:15:49;47.42;;;31.80;;
52734;SDS011;38631;47.572;10.704;2022-12-20T16:18:15;45.17;;;28.15;;
52734;SDS011;38631;47.572;10.704;2022-12-20T16:20:41;41.17;;;27.45;;
52734;SDS011;38631;47.572;10.704;2022-12-20T16:23:15;46.25;;;29.45;;
52734;SDS011;38631;47.572;10.704;2022-12-20T16:25:41;43.13;;;26.70;;